Time;durP1;ratioP1;P1;durP2;ratioP2;P2;SDS_P1;SDS_P2;PMS_P1;PMS_P2;Temp;Humidity;BMP_temperature;BMP_pressure;BME280_temperature;BME280_humidity;BME280_pressure;Samples;Min_cycle;Max_cycle;Signal;HPM_P1;HPM_P2
2022/04/13 00:00:50;;;;;;;2.13;1.20;;;;;;;;;;4930559;29;20325;-69
2022/04/13 00:03:15;;;;;;;4.68;1.50;;;;;;;;;;4925473;29;20539;-70
2022/04/13 00:05:42;;;;;;;4.03;1.50;;;;;;;;;;4932334;29;20024;-70
2022/04/13 00:08:08;;;;;;;3.20;1.50;;;;;;;;;;4928352;29;20047;-69
2022/04/13 00:10:34;;;;;;;2.63;1.38;;;;;;;;;;4929246;29;20045;-69
2022/04/13 00:12:59;;;;;;;2.15;1.10;;;;;;;;;;4933257;29;20051;-70
2022/04/13 00:15:25;;;;;;;4.40;1.40;;;;;;;;;;4930119;29;20035;-71
2022/04/13 00:17:51;;;;;;;7.60;1.48;;;;;;;;;;4927328;29;20102;-71
2022/04/13 00:20:16;;;;;;;3.75;2.05;;;;;;;;;;4926687;29;20031;-70
2022/04/13 00:22:42;;;;;;;3.15;1.40;;;;;;;;;;4933723;29;20317;-70
2022/04/13 00:25:07;;;;;;;3.92;1.60;;;;;;;;;;4930267;29;20056;-69
2022/04/13 00:27:33;;;;;;;2.45;1.48;;;;;;;;;;4930747;29;20096;-69
2022/04/13 00:29:58;;;;;;;2.30;1.30;;;;;;;;;;4929030;29;20044;-71
2022/04/13 00:32:25;;;;;;;2.35;1.52;;;;;;;;;;4930132;29;20036;-69
2022/04/13 00:34:51;;;;;;;2.83;1.50;;;;;;;;;;4923035;29;20036;-71
2022/04/13 00:37:16;;;;;;;5.70;1.75;;;;;;;;;;4927343;29;20047;-71
2022/04/13 00:39:43;;;;;;;3.60;1.52;;;;;;;;;;4928339;29;20313;-71
2022/04/13 00:42:09;;;;;;;2.97;1.48;;;;;;;;;;4930231;29;20062;-70
2022/04/13 00:44:35;;;;;;;2.05;1.38;;;;;;;;;;4930528;29;20225;-71
2022/04/13 00:47:06;;;;;;;5.35;1.42;;;;;;;;;;4930144;29;20086;-70
2022/04/13 00:49:31;;;;;;;5.28;1.50;;;;;;;;;;4929678;29;20217;-69
2022/04/13 00:52:02;;;;;;;2.17;1.25;;;;;;;;;;4931811;29;20067;-69
2022/04/13 00:54:31;;;;;;;4.22;1.40;;;;;;;;;;4923282;29;20045;-68
2022/04/13 00:56:57;;;;;;;3.92;1.25;;;;;;;;;;4935031;29;20306;-69
2022/04/13 00:59:26;;;;;;;3.22;1.35;;;;;;;;;;4922193;29;20071;-68
2022/04/13 01:01:57;;;;;;;2.78;1.25;;;;;;;;;;4925331;29;20269;-67
2022/04/13 01:04:25;;;;;;;4.38;1.33;;;;;;;;;;4926646;29;20037;-70
2022/04/13 01:06:52;;;;;;;2.40;1.45;;;;;;;;;;4930638;29;20175;-70
2022/04/13 01:09:19;;;;;;;3.40;1.40;;;;;;;;;;4928076;29;20035;-70
2022/04/13 01:11:44;;;;;;;3.28;1.50;;;;;;;;;;4928774;29;20095;-71
2022/04/13 01:14:10;;;;;;;3.25;1.30;;;;;;;;;;4934017;29;20051;-71
2022/04/13 01:16:39;;;;;;;5.25;1.98;;;;;;;;;;4936152;29;20063;-70
2022/04/13 01:19:06;;;;;;;2.40;1.40;;;;;;;;;;4932458;29;20242;-69
2022/04/13 01:21:47;;;;;;;4.57;1.60;;;;;;;;;;4923319;29;20039;-70
2022/04/13 01:24:14;;;;;;;2.22;1.30;;;;;;;;;;4922693;29;20052;-70
2022/04/13 01:26:40;;;;;;;3.80;1.45;;;;;;;;;;4921434;29;20043;-70
2022/04/13 01:29:06;;;;;;;3.13;1.40;;;;;;;;;;4918492;29;20051;-70
2022/04/13 01:31:35;;;;;;;6.00;1.55;;;;;;;;;;4924992;29;20032;-70
2022/04/13 01:34:01;;;;;;;2.40;1.60;;;;;;;;;;4922118;29;20214;-70
2022/04/13 01:36:27;;;;;;;3.15;1.45;;;;;;;;;;4921928;29;20033;-71
2022/04/13 01:38:53;;;;;;;2.65;1.70;;;;;;;;;;4923393;29;20024;-69
2022/04/13 01:41:18;;;;;;;2.50;1.33;;;;;;;;;;4931704;29;20043;-70
2022/04/13 01:43:44;;;;;;;2.80;1.63;;;;;;;;;;4927281;29;20035;-71
2022/04/13 01:46:10;;;;;;;1.65;1.33;;;;;;;;;;4931378;29;20027;-71
2022/04/13 01:48:35;;;;;;;3.17;1.40;;;;;;;;;;4934202;29;20027;-71
2022/04/13 01:51:00;;;;;;;3.92;1.65;;;;;;;;;;4927665;29;20031;-69
2022/04/13 01:53:26;;;;;;;2.28;1.63;;;;;;;;;;4931364;29;20036;-69
2022/04/13 01:55:54;;;;;;;3.78;1.77;;;;;;;;;;4933328;29;20035;-69
2022/04/13 01:58:20;;;;;;;5.20;1.35;;;;;;;;;;4935347;29;20051;-70
2022/04/13 02:00:46;;;;;;;3.15;1.45;;;;;;;;;;4931624;29;20067;-70
2022/04/13 02:03:11;;;;;;;1.77;1.20;;;;;;;;;;4933273;29;20043;-69
2022/04/13 02:05:36;;;;;;;5.25;1.40;;;;;;;;;;4936820;29;20091;-70
2022/04/13 02:08:02;;;;;;;2.97;1.48;;;;;;;;;;4934743;29;20030;-69
2022/04/13 02:10:28;;;;;;;3.15;1.58;;;;;;;;;;4928916;29;20199;-69
2022/04/13 02:12:53;;;;;;;2.33;1.50;;;;;;;;;;4927249;29;20048;-70
2022/04/13 02:15:19;;;;;;;6.82;1.90;;;;;;;;;;4928652;29;20036;-70
2022/04/13 02:17:44;;;;;;;3.05;1.45;;;;;;;;;;4930419;29;20032;-69
2022/04/13 02:20:10;;;;;;;2.72;1.50;;;;;;;;;;4928482;29;20178;-70
2022/04/13 02:22:36;;;;;;;1.75;1.45;;;;;;;;;;4931680;29;20277;-70
2022/04/13 02:25:05;;;;;;;2.88;1.50;;;;;;;;;;4928006;29;20028;-70
2022/04/13 02:27:31;;;;;;;3.03;2.03;;;;;;;;;;4935614;29;20039;-69
2022/04/13 02:29:56;;;;;;;2.63;1.48;;;;;;;;;;4924908;29;20032;-68
2022/04/13 02:32:22;;;;;;;7.07;2.08;;;;;;;;;;4928592;29;20335;-70
2022/04/13 02:34:48;;;;;;;2.20;2.00;;;;;;;;;;4932604;29;20095;-69
2022/04/13 02:37:15;;;;;;;2.35;1.60;;;;;;;;;;4935265;29;20110;-70
2022/04/13 02:39:40;;;;;;;3.35;1.52;;;;;;;;;;4929451;29;20032;-70
2022/04/13 02:42:06;;;;;;;1.65;1.40;;;;;;;;;;4934375;29;20059;-70
2022/04/13 02:44:31;;;;;;;3.75;1.70;;;;;;;;;;4925562;29;20322;-69
2022/04/13 02:46:57;;;;;;;3.58;2.00;;;;;;;;;;4932540;29;20044;-71
2022/04/13 02:49:22;;;;;;;2.90;1.92;;;;;;;;;;4928611;29;20214;-70
2022/04/13 02:51:47;;;;;;;3.65;1.98;;;;;;;;;;4931067;29;20036;-70
2022/04/13 02:54:13;;;;;;;2.88;1.70;;;;;;;;;;4928082;29;20031;-69
2022/04/13 02:56:38;;;;;;;6.45;2.17;;;;;;;;;;4925782;29;20078;-70
2022/04/13 02:59:04;;;;;;;4.72;2.08;;;;;;;;;;4929931;29;20035;-70
2022/04/13 03:01:29;;;;;;;4.25;2.22;;;;;;;;;;4932157;29;20028;-69
2022/04/13 03:03:55;;;;;;;3.38;2.15;;;;;;;;;;4931915;29;20091;-69
2022/04/13 03:06:21;;;;;;;3.17;2.00;;;;;;;;;;4930939;29;20102;-70
2022/04/13 03:08:47;;;;;;;2.47;1.83;;;;;;;;;;4929712;29;20035;-69
2022/04/13 03:11:12;;;;;;;4.35;1.75;;;;;;;;;;4925296;29;20035;-68
2022/04/13 03:13:38;;;;;;;3.67;1.90;;;;;;;;;;4932726;29;20310;-69
2022/04/13 03:16:03;;;;;;;2.00;1.75;;;;;;;;;;4935683;29;20028;-69
2022/04/13 03:18:29;;;;;;;3.40;1.80;;;;;;;;;;4936393;29;20026;-69
2022/04/13 03:20:54;;;;;;;3.47;2.20;;;;;;;;;;4930851;29;20075;-70
2022/04/13 03:23:20;;;;;;;3.63;1.70;;;;;;;;;;4930338;29;20078;-69
2022/04/13 03:25:45;;;;;;;7.25;2.00;;;;;;;;;;4931005;29;20027;-70
2022/04/13 03:28:10;;;;;;;2.55;1.70;;;;;;;;;;4930274;29;20035;-69
2022/04/13 03:30:36;;;;;;;4.97;1.90;;;;;;;;;;4924232;29;20129;-68
2022/04/13 03:33:02;;;;;;;2.70;2.00;;;;;;;;;;4930978;29;20317;-71
2022/04/13 03:35:27;;;;;;;3.60;1.95;;;;;;;;;;4933796;29;20309;-69
2022/04/13 03:37:53;;;;;;;3.38;1.83;;;;;;;;;;4932926;29;20076;-71
2022/04/13 03:40:18;;;;;;;2.60;1.67;;;;;;;;;;4934604;29;20043;-70
2022/04/13 03:42:43;;;;;;;5.40;2.13;;;;;;;;;;4933500;29;20023;-69
2022/04/13 03:45:11;;;;;;;3.90;1.90;;;;;;;;;;4930870;29;20331;-67
2022/04/13 03:47:38;;;;;;;8.80;5.07;;;;;;;;;;4928629;29;20091;-69
2022/04/13 03:50:04;;;;;;;4.63;2.78;;;;;;;;;;4933082;29;20208;-72
2022/04/13 03:52:34;;;;;;;2.97;2.08;;;;;;;;;;4928591;29;20125;-69
2022/04/13 03:55:00;;;;;;;3.53;2.20;;;;;;;;;;4932882;29;20023;-69
2022/04/13 03:57:26;;;;;;;3.42;2.13;;;;;;;;;;4934999;29;20047;-68
2022/04/13 03:59:51;;;;;;;3.95;1.98;;;;;;;;;;4932941;29;20244;-67
2022/04/13 04:02:16;;;;;;;4.10;1.92;;;;;;;;;;4932082;29;20040;-69
2022/04/13 04:04:42;;;;;;;4.75;2.20;;;;;;;;;;4936481;29;20098;-68
2022/04/13 04:07:08;;;;;;;3.92;2.17;;;;;;;;;;4931253;29;20099;-70
2022/04/13 04:09:34;;;;;;;5.35;2.42;;;;;;;;;;4929830;29;20032;-70
2022/04/13 04:11:59;;;;;;;7.85;2.33;;;;;;;;;;4936538;29;20050;-70
2022/04/13 04:14:25;;;;;;;4.05;2.22;;;;;;;;;;4933571;29;20043;-69
2022/04/13 04:16:51;;;;;;;5.40;2.08;;;;;;;;;;4932099;29;20076;-70
2022/04/13 04:19:16;;;;;;;2.92;2.10;;;;;;;;;;4935952;29;20035;-68
2022/04/13 04:21:41;;;;;;;4.60;2.88;;;;;;;;;;4936491;29;20087;-69
2022/04/13 04:24:07;;;;;;;4.30;2.92;;;;;;;;;;4930272;29;20044;-69
2022/04/13 04:26:32;;;;;;;7.30;3.80;;;;;;;;;;4938462;29;20036;-70
2022/04/13 04:28:58;;;;;;;4.93;2.63;;;;;;;;;;4936033;29;20047;-68
2022/04/13 04:34:07;;;;;;;4.18;2.55;;;;;;;;;;4930846;29;20356;-69
2022/04/13 04:36:33;;;;;;;4.47;2.50;;;;;;;;;;4938559;29;20090;-68
2022/04/13 04:38:58;;;;;;;4.35;2.55;;;;;;;;;;4932972;29;20384;-66
2022/04/13 04:41:24;;;;;;;3.50;2.45;;;;;;;;;;4934634;29;20036;-70
2022/04/13 04:43:49;;;;;;;6.03;2.63;;;;;;;;;;4931374;29;20132;-68
2022/04/13 04:46:15;;;;;;;7.32;2.30;;;;;;;;;;4937733;29;20066;-69
2022/04/13 04:48:42;;;;;;;4.57;2.15;;;;;;;;;;4926267;29;20337;-69
2022/04/13 04:51:11;;;;;;;3.67;2.20;;;;;;;;;;4935703;29;20039;-68
2022/04/13 04:53:37;;;;;;;7.47;2.47;;;;;;;;;;4928638;29;20036;-71
2022/04/13 04:56:02;;;;;;;8.00;2.70;;;;;;;;;;4936434;29;20098;-68
2022/04/13 04:58:27;;;;;;;4.15;2.45;;;;;;;;;;4931275;29;20039;-58
2022/04/13 05:00:53;;;;;;;4.57;2.60;;;;;;;;;;4932269;29;20256;-55
2022/04/13 05:03:19;;;;;;;5.38;2.72;;;;;;;;;;4929296;29;20059;-58
2022/04/13 05:05:45;;;;;;;4.13;2.50;;;;;;;;;;4934141;29;20075;-56
2022/04/13 05:08:11;;;;;;;7.40;2.42;;;;;;;;;;4923203;29;20389;-55
2022/04/13 05:10:37;;;;;;;4.97;2.63;;;;;;;;;;4927266;29;20035;-56
2022/04/13 05:13:02;;;;;;;3.92;2.38;;;;;;;;;;4935440;29;20320;-59
2022/04/13 05:15:28;;;;;;;2.60;1.88;;;;;;;;;;4928106;29;20039;-58
2022/04/13 05:17:54;;;;;;;4.78;2.15;;;;;;;;;;4929407;29;20032;-57
2022/04/13 05:20:20;;;;;;;2.58;2.10;;;;;;;;;;4925487;29;20344;-57
2022/04/13 05:22:46;;;;;;;8.25;2.10;;;;;;;;;;4927575;29;20040;-58
2022/04/13 05:25:14;;;;;;;4.95;1.80;;;;;;;;;;4930384;29;20091;-56
2022/04/13 05:27:40;;;;;;;3.53;1.88;;;;;;;;;;4931231;29;20031;-54
2022/04/13 05:30:07;;;;;;;7.50;2.50;;;;;;;;;;4933636;29;20042;-58
2022/04/13 05:32:46;;;;;;;4.32;2.10;;;;;;;;;;4928329;29;20038;-58
2022/04/13 05:35:11;;;;;;;5.50;2.45;;;;;;;;;;4927706;29;20050;-58
2022/04/13 05:37:37;;;;;;;4.57;2.30;;;;;;;;;;4927969;29;20310;-58
2022/04/13 05:40:02;;;;;;;6.65;2.30;;;;;;;;;;4931215;29;20071;-57
2022/04/13 05:42:31;;;;;;;6.93;2.55;;;;;;;;;;4929158;29;20039;-60
2022/04/13 05:44:57;;;;;;;4.25;2.22;;;;;;;;;;4929780;29;20249;-59
2022/04/13 05:47:22;;;;;;;5.43;2.60;;;;;;;;;;4929701;29;20099;-58
2022/04/13 05:49:47;;;;;;;8.02;2.72;;;;;;;;;;4934387;29;20336;-59
2022/04/13 05:52:13;;;;;;;9.60;2.60;;;;;;;;;;4932570;29;20052;-56
2022/04/13 05:54:40;;;;;;;9.32;2.20;;;;;;;;;;4928184;29;20040;-56
2022/04/13 05:57:06;;;;;;;5.97;2.42;;;;;;;;;;4933473;29;20048;-57
2022/04/13 05:59:31;;;;;;;9.68;2.25;;;;;;;;;;4929610;29;20111;-57
2022/04/13 06:01:57;;;;;;;7.00;2.88;;;;;;;;;;4933406;29;20035;-59
2022/04/13 06:04:23;;;;;;;5.50;2.60;;;;;;;;;;4933302;29;20039;-59
2022/04/13 06:06:48;;;;;;;7.07;2.90;;;;;;;;;;4932280;28;20032;-59
2022/04/13 06:09:14;;;;;;;9.45;2.83;;;;;;;;;;4928377;29;20032;-59
2022/04/13 06:11:39;;;;;;;7.63;3.22;;;;;;;;;;4932158;29;20038;-59
2022/04/13 06:14:04;;;;;;;7.22;2.78;;;;;;;;;;4934132;29;20320;-56
2022/04/13 06:16:30;;;;;;;5.70;2.60;;;;;;;;;;4929935;29;20301;-59
2022/04/13 06:18:55;;;;;;;8.57;3.10;;;;;;;;;;4928757;29;20032;-56
2022/04/13 06:21:20;;;;;;;6.25;3.20;;;;;;;;;;4922597;29;20265;-56
2022/04/13 06:23:47;;;;;;;9.82;3.90;;;;;;;;;;4927311;29;20035;-56
2022/04/13 06:26:12;;;;;;;6.78;3.67;;;;;;;;;;4930887;29;20059;-55
2022/04/13 06:28:38;;;;;;;16.08;4.03;;;;;;;;;;4926240;29;20221;-55
2022/04/13 06:31:03;;;;;;;7.72;4.13;;;;;;;;;;4924433;29;20332;-57
2022/04/13 06:33:28;;;;;;;10.90;4.55;;;;;;;;;;4931065;29;20036;-56
2022/04/13 06:35:54;;;;;;;9.80;4.03;;;;;;;;;;4932418;29;20051;-58
2022/04/13 06:38:19;;;;;;;9.02;4.35;;;;;;;;;;4924992;29;20048;-56
2022/04/13 06:40:45;;;;;;;10.05;3.83;;;;;;;;;;4927281;29;20043;-58
2022/04/13 06:43:10;;;;;;;11.30;4.13;;;;;;;;;;4931131;29;20032;-58
2022/04/13 06:45:36;;;;;;;17.90;4.63;;;;;;;;;;4929359;29;20151;-56
2022/04/13 06:48:02;;;;;;;12.75;4.68;;;;;;;;;;4934846;29;20118;-59
2022/04/13 06:50:28;;;;;;;7.35;3.88;;;;;;;;;;4927557;29;20040;-56
2022/04/13 06:52:53;;;;;;;8.40;3.88;;;;;;;;;;4927515;29;20043;-60
2022/04/13 06:55:19;;;;;;;8.82;3.58;;;;;;;;;;4927069;29;20044;-55
2022/04/13 06:57:44;;;;;;;9.88;4.40;;;;;;;;;;4932989;29;20024;-56
2022/04/13 07:00:12;;;;;;;17.33;4.93;;;;;;;;;;4932667;29;20051;-58
2022/04/13 07:02:39;;;;;;;10.80;3.83;;;;;;;;;;4929305;29;20395;-58
2022/04/13 07:05:05;;;;;;;13.18;4.70;;;;;;;;;;4928651;29;20099;-54
2022/04/13 07:07:31;;;;;;;9.27;3.97;;;;;;;;;;4923675;29;20039;-57
2022/04/13 07:09:56;;;;;;;8.52;3.67;;;;;;;;;;4930221;29;20257;-57
2022/04/13 07:12:22;;;;;;;6.05;3.45;;;;;;;;;;4931023;29;20052;-57
2022/04/13 07:14:47;;;;;;;6.60;3.60;;;;;;;;;;4934647;29;20031;-56
2022/04/13 07:17:12;;;;;;;8.18;3.45;;;;;;;;;;4929948;29;20351;-56
2022/04/13 07:19:38;;;;;;;6.57;3.20;;;;;;;;;;4935803;29;20107;-57
2022/04/13 07:22:05;;;;;;;6.55;3.33;;;;;;;;;;4925171;29;20104;-57
2022/04/13 07:24:30;;;;;;;9.25;2.95;;;;;;;;;;4934606;29;20038;-55
2022/04/13 07:26:56;;;;;;;4.25;2.92;;;;;;;;;;4927180;29;20032;-56
2022/04/13 07:29:21;;;;;;;4.32;2.88;;;;;;;;;;4933845;29;20040;-57
2022/04/13 07:31:47;;;;;;;5.63;3.10;;;;;;;;;;4929904;29;20108;-56
2022/04/13 07:34:12;;;;;;;5.78;3.00;;;;;;;;;;4938980;29;20027;-57
2022/04/13 07:36:37;;;;;;;5.15;3.08;;;;;;;;;;4934118;29;20055;-57
2022/04/13 07:39:03;;;;;;;6.28;3.03;;;;;;;;;;4932210;29;20363;-57
2022/04/13 07:41:29;;;;;;;5.45;3.15;;;;;;;;;;4933751;29;20027;-58
2022/04/13 07:43:57;;;;;;;5.47;2.72;;;;;;;;;;4931211;28;20036;-57
2022/04/13 07:46:22;;;;;;;5.32;2.83;;;;;;;;;;4930764;29;20079;-57
2022/04/13 07:48:47;;;;;;;6.85;3.13;;;;;;;;;;4933430;29;20055;-56
2022/04/13 07:51:13;;;;;;;5.97;3.30;;;;;;;;;;4932087;29;20032;-59
2022/04/13 07:53:39;;;;;;;5.75;3.10;;;;;;;;;;4928102;29;20294;-58
2022/04/13 07:56:04;;;;;;;6.07;2.95;;;;;;;;;;4948338;29;20227;-58
2022/04/13 07:58:30;;;;;;;5.68;2.83;;;;;;;;;;4931684;29;20068;-58
2022/04/13 08:00:55;;;;;;;7.95;3.42;;;;;;;;;;4934011;29;20074;-57
2022/04/13 08:03:20;;;;;;;7.18;3.00;;;;;;;;;;4930190;29;20038;-58
2022/04/13 08:05:46;;;;;;;4.45;3.10;;;;;;;;;;4931581;29;20024;-58
2022/04/13 08:08:11;;;;;;;8.40;3.75;;;;;;;;;;4930209;29;20087;-57
2022/04/13 08:10:37;;;;;;;7.88;3.50;;;;;;;;;;4927513;29;20059;-58
2022/04/13 08:13:02;;;;;;;9.57;3.58;;;;;;;;;;4928377;29;20028;-56
2022/04/13 08:15:28;;;;;;;10.25;3.40;;;;;;;;;;4935461;29;20066;-55
2022/04/13 08:17:53;;;;;;;8.70;2.95;;;;;;;;;;4928796;29;20257;-57
2022/04/13 08:20:18;;;;;;;7.10;3.13;;;;;;;;;;4936225;29;20035;-57
2022/04/13 08:22:46;;;;;;;6.13;2.88;;;;;;;;;;4932982;29;20103;-56
2022/04/13 08:25:13;;;;;;;9.27;3.88;;;;;;;;;;4933306;29;20032;-60
2022/04/13 08:27:38;;;;;;;9.38;3.90;;;;;;;;;;4936192;29;20027;-58
2022/04/13 08:30:05;;;;;;;16.75;4.57;;;;;;;;;;4936480;29;20035;-57
2022/04/13 08:32:30;;;;;;;15.77;4.07;;;;;;;;;;4932249;29;20059;-57
2022/04/13 08:34:56;;;;;;;14.20;4.00;;;;;;;;;;4934288;29;20024;-57
2022/04/13 08:37:22;;;;;;;11.18;3.85;;;;;;;;;;4927259;29;20070;-57
2022/04/13 08:39:48;;;;;;;14.00;4.25;;;;;;;;;;4926167;29;20119;-56
2022/04/13 08:42:19;;;;;;;12.25;4.72;;;;;;;;;;4930465;29;20032;-58
2022/04/13 08:44:44;;;;;;;7.97;3.22;;;;;;;;;;4926347;29;20024;-57
2022/04/13 08:47:13;;;;;;;8.27;3.63;;;;;;;;;;4931764;29;20266;-55
2022/04/13 08:49:40;;;;;;;6.68;3.67;;;;;;;;;;4929622;29;20036;-58
2022/04/13 08:52:08;;;;;;;10.80;4.60;;;;;;;;;;4934663;29;20147;-53
2022/04/13 08:54:44;;;;;;;8.30;3.72;;;;;;;;;;4931112;29;20031;-58
2022/04/13 08:57:11;;;;;;;13.68;3.80;;;;;;;;;;4931039;29;20028;-57
2022/04/13 09:00:03;;;;;;;6.93;3.13;;;;;;;;;;4926255;29;20329;-58
2022/04/13 09:02:47;;;;;;;6.35;3.65;;;;;;;;;;4934211;29;20066;-60
2022/04/13 09:05:19;;;;;;;7.85;3.60;;;;;;;;;;4929797;29;20997;-55
2022/04/13 09:07:53;;;;;;;16.10;4.88;;;;;;;;;;4929362;29;20036;-61
2022/04/13 09:10:23;;;;;;;9.57;3.40;;;;;;;;;;4931512;29;20055;-53
2022/04/13 09:12:51;;;;;;;12.38;3.50;;;;;;;;;;4930263;29;20051;-57
2022/04/13 09:15:16;;;;;;;7.95;3.47;;;;;;;;;;4927687;29;20075;-56
2022/04/13 09:17:42;;;;;;;5.70;3.40;;;;;;;;;;4929478;29;20051;-59
2022/04/13 09:20:09;;;;;;;7.35;4.00;;;;;;;;;;4927056;29;20099;-56
2022/04/13 09:22:36;;;;;;;7.70;3.78;;;;;;;;;;4934464;29;20035;-54
2022/04/13 09:25:04;;;;;;;7.53;3.58;;;;;;;;;;4934829;29;20067;-60
2022/04/13 09:27:31;;;;;;;12.48;6.82;;;;;;;;;;4928616;29;20056;-57
2022/04/13 09:29:56;;;;;;;10.02;4.10;;;;;;;;;;4932927;29;20122;-58
2022/04/13 09:32:23;;;;;;;8.57;3.67;;;;;;;;;;4929954;29;20055;-58
2022/04/13 09:34:50;;;;;;;9.43;4.03;;;;;;;;;;4933644;29;20051;-58
2022/04/13 09:37:15;;;;;;;9.15;3.40;;;;;;;;;;4934781;29;20054;-57
2022/04/13 09:39:41;;;;;;;6.00;3.88;;;;;;;;;;4935545;29;20274;-57
2022/04/13 09:42:07;;;;;;;13.88;4.00;;;;;;;;;;4934785;29;20036;-59
2022/04/13 09:44:33;;;;;;;9.52;4.80;;;;;;;;;;4940940;29;20034;-56
2022/04/13 09:47:05;;;;;;;10.85;4.30;;;;;;;;;;4933582;29;20040;-58
2022/04/13 09:49:31;;;;;;;13.63;4.97;;;;;;;;;;4937766;29;20071;-58
2022/04/13 09:52:00;;;;;;;10.45;3.97;;;;;;;;;;4938847;29;20514;-58
2022/04/13 09:54:26;;;;;;;14.70;3.78;;;;;;;;;;4932377;29;20044;-58
2022/04/13 09:56:52;;;;;;;10.07;3.35;;;;;;;;;;4939945;29;20036;-55
2022/04/13 09:59:24;;;;;;;8.02;3.42;;;;;;;;;;4934025;29;20454;-57
2022/04/13 10:01:49;;;;;;;12.02;4.90;;;;;;;;;;4938368;29;20035;-56
2022/04/13 10:04:29;;;;;;;7.45;3.92;;;;;;;;;;4936452;29;20244;-57
2022/04/13 10:06:55;;;;;;;7.07;3.60;;;;;;;;;;4938158;29;20028;-57
2022/04/13 10:09:22;;;;;;;11.82;4.82;;;;;;;;;;4939166;29;20036;-59
2022/04/13 10:11:58;;;;;;;9.60;4.00;;;;;;;;;;4931364;29;20063;-58
2022/04/13 10:14:24;;;;;;;6.70;3.65;;;;;;;;;;4936726;29;20028;-58
2022/04/13 10:16:53;;;;;;;11.00;5.18;;;;;;;;;;4932911;29;20217;-57
2022/04/13 10:19:22;;;;;;;10.05;3.70;;;;;;;;;;4934358;29;20266;-57
2022/04/13 10:21:49;;;;;;;6.15;3.88;;;;;;;;;;4934024;29;20032;-58
2022/04/13 10:24:21;;;;;;;7.40;4.18;;;;;;;;;;4938258;29;20217;-55
2022/04/13 10:27:12;;;;;;;9.52;4.45;;;;;;;;;;4936921;29;20241;-55
2022/04/13 10:29:42;;;;;;;7.95;4.35;;;;;;;;;;4930220;29;20058;-58
2022/04/13 10:32:09;;;;;;;7.72;3.58;;;;;;;;;;4935378;29;20548;-57
2022/04/13 10:34:43;;;;;;;7.90;3.40;;;;;;;;;;4939076;29;20027;-57
2022/04/13 10:37:14;;;;;;;7.10;4.45;;;;;;;;;;4932723;29;20059;-59
2022/04/13 10:39:41;;;;;;;7.80;3.78;;;;;;;;;;4933353;29;20071;-58
2022/04/13 10:42:08;;;;;;;8.75;3.88;;;;;;;;;;4932238;29;20062;-57
2022/04/13 10:44:36;;;;;;;10.00;4.47;;;;;;;;;;4932313;29;20039;-57
2022/04/13 10:47:04;;;;;;;13.13;5.28;;;;;;;;;;4937642;29;20023;-57
2022/04/13 10:49:40;;;;;;;11.40;4.97;;;;;;;;;;4939213;29;20095;-56
2022/04/13 10:52:09;;;;;;;11.65;5.30;;;;;;;;;;4931211;29;20028;-60
2022/04/13 10:54:38;;;;;;;12.30;4.95;;;;;;;;;;4926914;29;20028;-59
2022/04/13 10:57:05;;;;;;;8.60;4.63;;;;;;;;;;4931669;29;20062;-58
2022/04/13 10:59:42;;;;;;;13.48;4.85;;;;;;;;;;4934819;29;20046;-59
2022/04/13 11:02:24;;;;;;;11.57;5.57;;;;;;;;;;4936081;29;20046;-58
2022/04/13 11:04:50;;;;;;;16.25;5.45;;;;;;;;;;4936022;29;20071;-58
2022/04/13 11:07:18;;;;;;;14.20;4.75;;;;;;;;;;4935970;29;20035;-58
2022/04/13 11:09:45;;;;;;;14.15;5.55;;;;;;;;;;4933508;29;20043;-58
2022/04/13 11:12:12;;;;;;;14.32;4.60;;;;;;;;;;4934942;29;20039;-58
2022/04/13 11:14:48;;;;;;;9.40;4.43;;;;;;;;;;4937215;29;20024;-58
2022/04/13 11:17:14;;;;;;;14.65;5.00;;;;;;;;;;4932496;29;20062;-57
2022/04/13 11:19:42;;;;;;;10.73;4.13;;;;;;;;;;4937358;29;20228;-60
2022/04/13 11:22:10;;;;;;;8.57;3.88;;;;;;;;;;4936183;29;20098;-60
2022/04/13 11:24:48;;;;;;;7.13;4.35;;;;;;;;;;4932623;29;20395;-59
2022/04/13 11:27:14;;;;;;;7.57;4.20;;;;;;;;;;4930290;29;20028;-57
2022/04/13 11:29:40;;;;;;;9.65;4.40;;;;;;;;;;4937266;29;20032;-58
2022/04/13 11:32:13;;;;;;;10.38;4.22;;;;;;;;;;4934236;29;20028;-60
2022/04/13 11:34:46;;;;;;;10.65;3.90;;;;;;;;;;4930982;29;20031;-59
2022/04/13 11:37:14;;;;;;;10.50;4.38;;;;;;;;;;4931771;29;20084;-60
2022/04/13 11:39:57;;;;;;;10.30;4.45;;;;;;;;;;4935026;29;20366;-63
2022/04/13 11:42:24;;;;;;;11.57;3.95;;;;;;;;;;4931702;29;20031;-59
2022/04/13 11:45:03;;;;;;;9.20;3.63;;;;;;;;;;4935599;29;20032;-59
2022/04/13 11:47:37;;;;;;;6.63;3.38;;;;;;;;;;4936941;29;20051;-60
2022/04/13 11:50:18;;;;;;;11.23;3.58;;;;;;;;;;4931460;29;20058;-59
2022/04/13 11:52:59;;;;;;;6.80;3.10;;;;;;;;;;4931371;29;20463;-58
2022/04/13 11:55:42;;;;;;;8.10;3.60;;;;;;;;;;4936029;29;20036;-59
2022/04/13 11:58:07;;;;;;;9.13;3.35;;;;;;;;;;4932062;29;20054;-57
2022/04/13 12:00:56;;;;;;;11.57;3.70;;;;;;;;;;4932950;29;20059;-57
2022/04/13 12:03:32;;;;;;;6.90;2.72;;;;;;;;;;4935772;29;20110;-58
2022/04/13 12:06:01;;;;;;;10.30;3.30;;;;;;;;;;4939804;29;20098;-57
2022/04/13 12:08:32;;;;;;;22.77;3.78;;;;;;;;;;4934808;29;20329;-58
2022/04/13 12:11:00;;;;;;;8.75;3.28;;;;;;;;;;4925407;29;20036;-60
2022/04/13 12:13:27;;;;;;;7.85;3.15;;;;;;;;;;4928196;29;20107;-58
2022/04/13 12:15:54;;;;;;;6.10;2.78;;;;;;;;;;4932332;29;20059;-60
2022/04/13 12:18:21;;;;;;;7.55;3.05;;;;;;;;;;4932548;29;20036;-59
2022/04/13 12:20:47;;;;;;;11.77;3.42;;;;;;;;;;4940327;29;20313;-60
2022/04/13 12:23:25;;;;;;;12.57;3.00;;;;;;;;;;4936511;29;20040;-57
2022/04/13 12:25:55;;;;;;;12.35;3.65;;;;;;;;;;4933787;29;20170;-59
2022/04/13 12:28:22;;;;;;;13.82;3.42;;;;;;;;;;4929286;29;20090;-56
2022/04/13 12:31:00;;;;;;;12.30;3.28;;;;;;;;;;4929971;29;20032;-57
2022/04/13 12:33:29;;;;;;;10.30;3.78;;;;;;;;;;4933137;29;20028;-57
2022/04/13 12:36:03;;;;;;;9.95;4.03;;;;;;;;;;4936595;29;20036;-59
2022/04/13 12:38:41;;;;;;;11.00;4.43;;;;;;;;;;4935609;29;20035;-60
2022/04/13 12:41:12;;;;;;;11.35;4.18;;;;;;;;;;4930907;29;20035;-58
2022/04/13 12:43:41;;;;;;;10.13;4.18;;;;;;;;;;4934262;29;20158;-58
2022/04/13 12:46:10;;;;;;;8.90;3.83;;;;;;;;;;4934501;29;20055;-58
2022/04/13 12:48:37;;;;;;;10.40;3.65;;;;;;;;;;4932062;29;20103;-59
2022/04/13 12:51:04;;;;;;;7.47;3.47;;;;;;;;;;4925083;29;20036;-61
2022/04/13 12:53:41;;;;;;;5.90;2.40;;;;;;;;;;4932471;29;20094;-59
2022/04/13 12:56:10;;;;;;;8.30;2.80;;;;;;;;;;4931840;29;20032;-60
2022/04/13 12:58:37;;;;;;;7.25;2.60;;;;;;;;;;4934746;29;20028;-61
2022/04/13 13:01:03;;;;;;;7.88;2.78;;;;;;;;;;4935493;29;20035;-59
2022/04/13 13:03:34;;;;;;;6.43;2.80;;;;;;;;;;4934577;29;20038;-58
2022/04/13 13:06:11;;;;;;;7.32;2.72;;;;;;;;;;4941938;29;20027;-59
2022/04/13 13:08:54;;;;;;;9.63;3.00;;;;;;;;;;4938529;29;20031;-58
2022/04/13 13:11:31;;;;;;;9.68;2.80;;;;;;;;;;4934296;29;20039;-60
2022/04/13 13:14:14;;;;;;;5.75;3.05;;;;;;;;;;4934881;29;20110;-58
2022/04/13 13:16:44;;;;;;;10.02;2.92;;;;;;;;;;4926931;29;20070;-61
2022/04/13 13:19:16;;;;;;;6.70;2.60;;;;;;;;;;4931977;29;20108;-58
2022/04/13 13:22:08;;;;;;;4.40;2.40;;;;;;;;;;4933929;29;20359;-59
2022/04/13 13:24:34;;;;;;;8.00;2.30;;;;;;;;;;4932118;29;20099;-59
2022/04/13 13:27:06;;;;;;;5.13;2.10;;;;;;;;;;4934831;29;20048;-60
2022/04/13 13:29:31;;;;;;;10.02;2.53;;;;;;;;;;4936635;29;20309;-59
2022/04/13 13:31:57;;;;;;;11.95;2.50;;;;;;;;;;4938894;29;20122;-58
2022/04/13 13:34:24;;;;;;;9.82;2.63;;;;;;;;;;4937809;29;20036;-58
2022/04/13 13:36:58;;;;;;;7.78;2.47;;;;;;;;;;4935751;29;20028;-58
2022/04/13 13:39:24;;;;;;;8.55;2.75;;;;;;;;;;4930315;29;20103;-60
2022/04/13 13:42:06;;;;;;;10.73;2.63;;;;;;;;;;4936102;29;20087;-59
2022/04/13 13:44:32;;;;;;;7.82;2.55;;;;;;;;;;4932460;29;20217;-60
2022/04/13 13:46:58;;;;;;;10.93;2.33;;;;;;;;;;4931202;29;20055;-60
2022/04/13 13:49:23;;;;;;;7.20;2.30;;;;;;;;;;4932508;29;20266;-59
2022/04/13 13:51:49;;;;;;;9.98;2.90;;;;;;;;;;4935792;29;20027;-58
2022/04/13 13:54:14;;;;;;;9.25;2.30;;;;;;;;;;4933179;29;20028;-59
2022/04/13 13:56:39;;;;;;;9.25;2.50;;;;;;;;;;4939817;29;20102;-58
2022/04/13 13:59:06;;;;;;;13.73;2.83;;;;;;;;;;4934340;29;20055;-58
2022/04/13 14:01:31;;;;;;;9.07;2.38;;;;;;;;;;4931761;29;20039;-58
2022/04/13 14:03:57;;;;;;;7.45;2.47;;;;;;;;;;4930493;29;20059;-59
2022/04/13 14:06:23;;;;;;;11.18;2.58;;;;;;;;;;4941879;29;20364;-60
2022/04/13 14:08:50;;;;;;;6.70;2.45;;;;;;;;;;4933108;29;20024;-57
2022/04/13 14:11:16;;;;;;;9.50;2.10;;;;;;;;;;4932505;29;20038;-58
2022/04/13 14:13:42;;;;;;;7.82;2.17;;;;;;;;;;4928803;29;20095;-57
2022/04/13 14:16:07;;;;;;;4.03;2.00;;;;;;;;;;4928026;29;20038;-58
2022/04/13 14:18:33;;;;;;;6.63;2.00;;;;;;;;;;4936620;29;20028;-56
2022/04/13 14:20:58;;;;;;;4.90;2.00;;;;;;;;;;4935431;29;20328;-59
2022/04/13 14:23:24;;;;;;;8.13;2.10;;;;;;;;;;4931102;29;20028;-63
2022/04/13 14:25:49;;;;;;;7.00;1.92;;;;;;;;;;4934175;29;20085;-57
2022/04/13 14:28:14;;;;;;;9.25;2.30;;;;;;;;;;4932726;29;20044;-59
2022/04/13 14:30:40;;;;;;;8.65;2.20;;;;;;;;;;4937006;29;20035;-62
2022/04/13 14:33:06;;;;;;;7.32;2.38;;;;;;;;;;4932798;29;20238;-61
2022/04/13 14:35:31;;;;;;;9.07;2.05;;;;;;;;;;4936004;29;20032;-62
2022/04/13 14:37:56;;;;;;;8.35;1.80;;;;;;;;;;4937980;29;20885;-62
2022/04/13 14:40:23;;;;;;;12.10;2.08;;;;;;;;;;4935798;29;20079;-61
2022/04/13 14:42:49;;;;;;;5.28;2.10;;;;;;;;;;4937730;29;20058;-62
2022/04/13 14:45:15;;;;;;;6.35;1.90;;;;;;;;;;4934012;29;20027;-61